Terminal Aerodrome Forecast
Issued by NWS Shreveport, LA

Home | Current Version | Previous Version | Text Only | Print | Product List | Glossary On
Versions: 1 2 3 4 5 6 7 8 9 10 11 12 13 14 15 16 17 18 19 20 21
000
FTUS44 KSHV 272110 AAA
TAFTXK
TAF AMD
KTXK 272110Z 2721/2818 12007KT P6SM OVC006
     FM280000 16010KT P6SM SCT060
     FM280500 15008KT P6SM OVC009
     FM281600 20010KT P6SM BKN025=

USA.gov is the U.S. government's official web portal to all federal, state and local government web resources and services.